One Hundred Palms, California
Current Conditions -  °F | °C
As of 4:56 AM on Monday 20 Oct 2014 (Local Time) from KNJK Reporting Station
Clear Clear  
Wind Chill: 22°   Ceiling: Unl
Heat Index: 22°   Visibility: 10mi
Dew Point: 10°   Wind: 5mph
Humidity: 47%   Direction: 190°S
Pressure: 29.78"   Gusts: NA
Location:  33.093°N, 116.06°W
Report Text: KNJK 201156Z AUTO 19004KT 10SM CLR 22/10 A2978 RMK AO2 SLP100 T02170100 10250 20194 53004 $
Loading
Personal Weather Stations






























Interactive Weather Map
Tropical Storm Tracking
New forecast layout! Learn more

10-Day Weather Forecast

Advertisements
Track Severe Weather on mobile